Quyon, Canada
Current Conditions -  °F | °C
As of 10:00 AM on Thursday 30 Oct 2014 (Local Time) from CYOW Reporting Station
Few Clouds Few Clouds  
Wind Chill: 35°   Ceiling: Unl
Heat Index: 41°   Visibility: 15mi
Dew Point: 34°   Wind: 9mph
Humidity: 76%   Direction: 330°NNW
Pressure: 30.02"   Gusts: NA
Location:  45.52°N, 76.23°W
Report Text: CYOW 301400Z 33008KT 15SM FEW016 05/01 A3002 RMK SC2 SLP169
Loading
Personal Weather Stations






























Interactive Weather Map
Tropical Storm Tracking
New forecast layout! Learn more

10-Day Weather Forecast

Advertisements
Track Severe Weather on mobile